Port Pirie, South Australia

3:09 PM CST on August 20, 2014 (GMT +0930)
Whyalla | Change Station
CLOSE
Current Station
Airport
Location: Whyalla,
Elevation: 20 ft
Nearby Weather Stations

Elev 20 ft 33.05 °S, 137.52 °E | Updated 39 minutes ago

Clear
Clear
59 °F
Feels Like 59 °F
N
10
Wind Variable Wind from South

Today
High -- | Low -- °F
--% Chance of Precip.
Yesterday
High -- | Low -- °F
Precip. -- in
6:50 AM 5:52 PM
Waning Crescent, 24% visible
Pressure 30.21 in
Visibility 6.2 miles
Clouds
Dew Point 45 °F
Humidity 59%
Rainfall 0.00 in
Snow Depth Not available.
UV Not available.
Pollen Not available.
Air Quality Not available.
Flu Activity Not available.
METAR YWHA 200500Z AUTO 17009KT 9999 // NCD 15/07 Q1023

More Conditions Fewer Conditions

Pressure 30.21 in
Visibility 6.2 miles
Clouds
Dew Point 45 °F
Humidity 59%
Rainfall 0.00 in
Snow Depth Not available.
UV Not available.
Pollen Not available.
Air Quality Not available.
Flu Activity Not available.
METAR YWHA 200500Z AUTO 17009KT 9999 // NCD 15/07 Q1023

More Conditions Fewer Conditions

10-Day Weather Forecast

Almanac

Astronomy

Aug. 20, 2014 Rise Set
Actual Time 6:50 AM CST 5:52 PM CST
Civil Twilight 6:25 AM CST 6:17 PM CST
Nautical Twilight 5:56 AM CST 6:46 PM CST
Astronomical Twilight 5:27 AM CST 7:15 PM CST
Moon 2:44 AM CST 1:22 PM CST
Length of Visible Light 11h 52m
Length of Day
11h 01m
Tomorrow will be 1m 49s longer.
Waning Crescent, 24% of the Moon is Illuminated
Today
Waning Crescent
Aug 25
New
Sep 2
First Quarter
Sep 8
Full
Sep 15
Last Quarter

Yesterday's Extremes

Country Highs Country Lows

Community

WunderPhotos

Upload Photos

1,745,592 photos uploaded!

Nearby

Snow Depth

Not available.

Earthquake Activity

City Distance Mag. Time & Date
No recent earthquake activity has been reported nearby.
Minimum magnitude displayed is 2.5.

Coastal Water Temperatures

Place Temperature
No Stations Reporting

Nearby Weather Stations